Aérodrome :
LOGIN :

S'inscrire | Disclaimer

   EN    FR    IT 

 










Légende :    VFR   VFR Marginal   IFR   IFR Intensif   IFR Très Intensif
Visi : 
Plafond : 
>= 8 km
>= 3000ft
5 à 8 km
1000 à 3000 ft
1500m à 5 km
500 à 1000 ft
800 à 1500m
200 à 500 ft
< 800m
< 200 ft
Symboles :   Orages  Brouillard  Fortes neiges  Fortes précipitations  Vent > 20 kt
SIGMETs :   Divers  Orages  Givrage  Turbulence  Onde Orograph.  Cendres Volcan.







- Altitude de l'aérodrome : 297 ft


EGVP - Middle Wallop

DERNIER METAR :
  • 011622Z 20004KT 7000 -RADZ FEW005 SCT006 OVC031 07/06 Q0997 YLO1 TEMPO 3000 -DZ SCT004 YLO2

METARs EXPIRÉS :
  • 011550Z 20004KT 9999 SCT008 OVC035 07/06 Q0997 GRN TEMPO 6000 -RA GRN
  • 011532Z 20004KT 7000 -RA FEW008 SCT010 OVC035 07/05 Q0998 GRN TEMPO 9999 NSW GRN
  • 011450Z 20005KT 9999 -RA FEW010 SCT027 OVC035 07/05 Q0998 BLU TEMPO SCT010 GRN

TAF TAF EGVP
Valide du 01 à 18h jusqu'au 01 à 23h UTC


011638Z 0118/0123 21010KT 9999 BKN009
TEMPO 0118/0120 6000 -RA SCT006
PROB30
TEMPO 0118/0120 3000 -DZ BKN003
BECMG 0119/0121 26020G30KT FEW015
PROB40
TEMPO 0120/0123 27025G40KT 6000 SHRA SCT015TCU
ATIS : +44 1980 674 142
Pas de NOTAMs connus pour ce terrain.
1 SIGMET publié pour la FIR London (EGTT) :
 
Turbulence forte
EGTT SIGMET 01 VALID 011630/012000 EGRR
EGTT LONDON FIR SEV TURB FCST SW OF LINE N5113 W00736 - N4945 W00318 SFC/FL060 MOV ENE 25KT INTSF=



MET'MAP, la Météo Aéronautique d'un coup d'oeil ! - Copyright ORBIFLY Décembre 2007 - Disclaimer

ORBIFLY MET'MAP TEAM :

Programmation & Développement : Alexandra Zaïnal
Conception & Développement : Baudouin d'Aumeries
Co-Programmation & Développement : Marc-Olivier Méhu
Soutien technique & logistique : Manuel Goepfert

Contact : metmap@orbifly.com




SOURCES & CREDITS :

   NOAA